Dalton, Ohio
Current Conditions -  °F | °C
As of 6:56 AM on Friday 28 Nov 2014 (Local Time) from KBJJ Reporting Station
Overcast Overcast  
Wind Chill:   Ceiling: 3900
Heat Index: 20°   Visibility: 10mi
Dew Point: 12°   Wind: 12mph
Humidity: 71%   Direction: 300°WNW
Pressure: 30.34"   Gusts: NA
Location:  40.8°N, 81.7°W
Report Text: KBJJ 281156Z AUTO 30010KT 10SM OVC039 M07/M11 A3034 RMK AO2 SLP290 60000 T10671111 11033 21067 51010 TSNO
Loading
Personal Weather Stations






























Interactive Weather Map New forecast layout! Learn more

10-Day Weather Forecast

Advertisements
Track Severe Weather on mobile